AirNav   Pilot Hours Calculator
 
 1451 users online  

93MI Herrick Memorial Hospital Heliport
Tecumseh, Michigan, USA

GOING TO TECUMSEH?


FAA INFORMATION EFFECTIVE 05 DECEMBER 2019

Location

FAA Identifier: 93MI
Lat/Long: 42-00-06.2400N 083-56-16.8300W
42-00.104000N 083-56.280500W
42.0017333,-83.9380083
(estimated)
Elevation: 793 ft. / 242 m (estimated)
Variation: 07W (2015)
Time zone: UTC -5 (UTC -4 during Daylight Saving Time)
Zip code: 49286

Heliport Operations

Heliport use: Private use. Permission required prior to landing
Activation date: 02/2010
Control tower: no
ARTCC: CLEVELAND CENTER
FSS: LANSING FLIGHT SERVICE STATION
NOTAMs facility: FDC (NOTAM-D service not available)
Attendance: UNATNDD
Wind indicator: lighted
Segmented circle: no
Lights: SS-SR

Heliport Communications

DETROIT APPROACH: 118.95
DETROIT DEPARTURE: 118.95
WX ASOS at ADG (10 nm SW): 118.375 (517-265-9089)
WX ASOS at ARB (16 nm NE): PHONE 734-668-7173

Nearby radio navigation aids

VOR radial/distance  VOR name  Freq  Var
CRLr266/21.6CARLETON VOR/DME115.7003W
JXNr129/27.8JACKSON VOR/DME109.6005W
DXOr249/28.4DETROIT VOR/DME113.4006W
SVMr215/28.8SALEM VORTAC114.3003W
VWVr340/35.6WATERVILLE VOR/DME113.1002W
LFDr101/37.0LITCHFIELD VOR/DME111.2005W

 
NDB name  Hdg/Dist  Freq  Var  ID
TECUMSEH236/3.023906WTCU - -.-. ..-
ADRIAN044/10.127806WADG .- -.. --.
GROSSE ILE267/35.541907WRYS .-. -.-- ...

Heliport Services

Runway Information

Helipad H1

Dimensions: 45 x 45 ft. / 14 x 14 m
Surface: concrete, in good condition
Runway edge lights: PERI
Latitude: 42-00.104000N
Longitude: 083-56.280500W
Elevation: 793.0 ft.
Traffic pattern: leftleft

Heliport Ownership and Management from official FAA records

Ownership: Privately-owned
Owner: PROMEDICA HERRICK HOSPITAL
500 E. POTTAWATAMIE ST
TECUMSEH, MI 49286
Phone 517-265-0393
Manager: TAMMY GERMAN
500 E. POTTAWATAMIE ST
TECUMSEH, MI 49286
Phone 517-265-0393

Additional Remarks

A93 FBO FOR PROMEDICA AIR AND MOBILE LOCATED AT TOLEDO EXPRESS ARPT (KTOL).
OWNER DESIRES ARPT NOT BE CHARTED.
FOR CD CTC DETROIT APCH AT 800-499-8181.

Instrument Procedures

There are no published instrument procedures at 93MI.

Some nearby airports with instrument procedures:

KADG - Lenawee County Airport (10 nm SW)
KARB - Ann Arbor Municipal Airport (16 nm NE)
3NP - Napoleon Airport (18 nm NW)
KDUH - Toledo Suburban Airport (20 nm SE)
KTTF - Custer Airport (23 nm E)
 
Loc | Ops | Rwys | IFR | FBO | Links
Com | Nav | Svcs | Stats | Notes
Aerial photo
No photo
 
Sectional chart

 
Airport distance calculator
Flying to Herrick Memorial Hospital Heliport? Find the distance to fly.

From to 93MI

Sunrise and sunset
Times for 09-Dec-2019
 Local
(UTC-5)
 Zulu
(UTC)
Morning civil twilight07:2112:21
Sunrise07:5312:53
Sunset17:0322:03
Evening civil twilight17:3522:35

Current date and time
Zulu (UTC)  09-Dec-2019 18:51:46
Local (UTC-5)  09-Dec-2019 13:51:46
 
METAR
KADG 
10nm SW 
091753Z AUTO 24012G20KT 10SM -RA OVC011 10/08 A2949 RMK AO2 CIG 007V013 SLP991 P0000 60026 T01000083 10100 20078 56036
KARB 
16nm NE 
734-668-7173
091819Z 24012KT 8SM BKN010 OVC015 10/08 A2945 RMK AO2 RAB1754E15 CIG 008V012 P0000 T01000078
KDUH 
21nm SE 
091835Z AUTO 22007KT 5SM RA OVC013 11/09 A2948 RMK AO2 T01050092
TAF
KYIP 
23nm NE 
091720Z 0918/1018 19011G19KT 3SM -DZ BR OVC005 FM092300 22012G20KT 5SM -DZ BR BKN008 OVC018 FM100400 26014G26KT P6SM OVC022 FM100700 27015G26KT P6SM BKN028 OVC040 FM101200 29012G22KT P6SM OVC045
KTOL 
26nm S 
091741Z 0918/1018 17012G20KT 4SM -RA OVC008 FM092200 21010G18KT 6SM -RA OVC015 FM100000 22010G18KT P6SM VCSH OVC008 FM100300 25015G25KT P6SM OVC015 FM101400 27012KT P6SM BKN025
KJXN 
28nm NW 
091753Z 0918/1018 20012G20KT 6SM -RA OVC007 FM092200 22012G22KT 6SM -RA OVC006 FM100000 25020G30KT 5SM -RA BR OVC007 FM100300 27020G30KT 5SM -RASN BR OVC009 FM100600 28014G24KT 6SM -SHSN OVC015 FM101200 28012G22KT 6SM -SHSN OVC025
NOTAMs
Click for the latest NOTAMs
NOTAMs are issued by the DoD/FAA and will open in a separate window not controlled by AirNav.

 

 
 

Would you like to see your business listed on this page?

 If your business provides an interesting product or service to pilots, flight crews, aircraft, or users of the Herrick Memorial Hospital Heliport, you should consider listing it here.  To start the listing process, click on the button below
 
Add a business
 

Other Pages about Herrick Memorial Hospital Heliport

Update a link
 
Copyright © AirNav, LLC. All rights reserved. Privacy Policy  Contact